Terminal Aerodrome Forecast
Issued by NWS

Home | Current Version | Previous Version | Text Only | Print | Product List | Glossary On
Versions: 1 2 3 4 5 6 7 8 9 10 11 12 13 14 15 16 17
000
FTUS43 KDLH 231143
TAFHYR
TAF
KHYR 231143Z 2312/2412 23004KT P6SM SCT040
      TEMPO 2312/2313 3SM BR
     FM231400 28010KT P6SM BKN035
     FM232000 28010G17KT P6SM BKN040=

USA.gov is the U.S. government's official web portal to all federal, state and local government web resources and services.